Terminal Aerodrome Forecast
Issued by NWS

Home | Current Version | Previous Version | Text Only | Print | Product List | Glossary On
Versions: 1 2 3 4 5 6 7 8 9 10 11 12 13 14 15 16 17 18 19 20 21
000
FTUS41 KILN 011734
TAFLUK
TAF
KLUK 011734Z 0118/0218 34008KT P6SM SCT050
     FM020000 28003KT P6SM FEW050 BKN250
     FM021500 24010KT P6SM SCT050=

USA.gov is the U.S. government's official web portal to all federal, state and local government web resources and services.